WetterOnline ( http://www.wetteronline.de )

Wetter aktuell Bamberg

Aktuelles Wetter: Bamberg (243m)

6-stündlich | Neueste Meldungen
Ortszeit Temperatur Wetter
Fr, 22.02. 1:00 6.0° C bedeckt
Do, 21.02. 19:00 7.6° C bewölkt
Do, 21.02. 13:00 10.5° C bewölkt
Do, 21.02. 7:00 -2.1° C wolkig
Do, 21.02. 1:00 -0.5° C leicht bewölkt
Mi, 20.02. 19:00 4.0° C bedeckt
Mi, 20.02. 13:00 7.2° C bedeckt
Mi, 20.02. 7:00 -1.4° C bedeckt
Ortszeit Temperatur Wetter
Fr, 22.02. 3:00 8.8° C bedeckt
Fr, 22.02. 2:50 8.8° C bedeckt
Fr, 22.02. 2:40 9.1° C bewölkt
Fr, 22.02. 2:30 8.7° C bedeckt
Fr, 22.02. 2:20 8.7° C bedeckt
Fr, 22.02. 2:10 8.5° C bedeckt
Fr, 22.02. 2:00 6.9° C bedeckt
Fr, 22.02. 1:30 6.3° C bedeckt
Fr, 22.02. 1:00 6.0° C bedeckt
Fr, 22.02. 0:30 6.1° C bedeckt
Fr, 22.02. 0:00 6.0° C bedeckt
Ortszeit Relative Feuchte Sichtweite
Fr, 22.02. 1:00 86% 27 km
Do, 21.02. 19:00 74% 35 km
Do, 21.02. 13:00 64% 26 km
Do, 21.02. 7:00 95% 10 km
Do, 21.02. 1:00 94% 20 km
Mi, 20.02. 19:00 81% 50 km
Mi, 20.02. 13:00 70% 18 km
Mi, 20.02. 7:00 94% 3.6 km
Ortszeit Relative Feuchte Sichtweite
Fr, 22.02. 3:00 76% 11 km
Fr, 22.02. 2:50 76% -
Fr, 22.02. 2:40 76% -
Fr, 22.02. 2:30 79% 12 km
Fr, 22.02. 2:20 79% -
Fr, 22.02. 2:10 80% -
Fr, 22.02. 2:00 84% 19 km
Fr, 22.02. 1:30 86% 27 km
Fr, 22.02. 1:00 86% 27 km
Fr, 22.02. 0:30 85% 30 km
Fr, 22.02. 0:00 85% 35 km
Ortszeit Niederschlagsmenge Niederschlagsart
Fr, 22.02. 1:00 0.1 l/m2 in 6 Std. Sprühregen
Do, 21.02. 19:00 0.0 l/m2 in 12 Std. -
Do, 21.02. 13:00 0.0 l/m2 in 6 Std. -
Do, 21.02. 7:00 0.0 l/m2 in 12 Std. -
Do, 21.02. 1:00 0.0 l/m2 in 6 Std. -
Mi, 20.02. 19:00 0.0 l/m2 in 12 Std. -
Mi, 20.02. 13:00 0.0 l/m2 in 6 Std. -
Mi, 20.02. 7:00 0.0 l/m2 in 12 Std. -
Ortszeit Niederschlagsmenge Niederschlagsart
Fr, 22.02. 3:00 0.0 l/m2 in 1 Std. -
Fr, 22.02. 2:50 keine Meldung -
Fr, 22.02. 2:40 keine Meldung -
Fr, 22.02. 2:30 0.0 l/m2 in 1 Std. -
Fr, 22.02. 2:20 keine Meldung -
Fr, 22.02. 2:10 keine Meldung -
Fr, 22.02. 2:00 0.1 l/m2 in 1 Std. Regen
Fr, 22.02. 1:30 0.1 l/m2 in 1 Std. Schneeregen
Fr, 22.02. 1:00 0.0 l/m2 in 1 Std. Sprühregen
Fr, 22.02. 0:30 0.0 l/m2 in 1 Std. -
Fr, 22.02. 0:00 0.0 l/m2 in 1 Std. -
Ortszeit Stärke Spitze Richtung
km/h Bft. km/h Grad Sektor
Fr, 22.02. 1:00 4 1 7 80° O
Do, 21.02. 19:00 4 1 29 180° S
Do, 21.02. 13:00 4 1 14 290° W
Do, 21.02. 7:00 0 0 11 - -
Do, 21.02. 1:00 4 1 7 160° S
Mi, 20.02. 19:00 4 1 22 120° SO
Mi, 20.02. 13:00 7 2 14 140° SO
Mi, 20.02. 7:00 4 1 7 170° S
Ortszeit Stärke Spitze Richtung
km/h Bft. km/h Grad Sektor
Fr, 22.02. 3:00 11 2 19 320° NW
Fr, 22.02. 2:50 11 2 - 320° NW
Fr, 22.02. 2:40 11 2 - 310° NW
Fr, 22.02. 2:30 9 2 13 310° NW
Fr, 22.02. 2:20 9 2 - 310° NW
Fr, 22.02. 2:10 7 2 - 320° NW
Fr, 22.02. 2:00 4 1 7 360° N
Fr, 22.02. 1:30 4 1 7 360° N
Fr, 22.02. 1:00 4 1 7 80° O
Fr, 22.02. 0:30 4 1 7 180° S
Fr, 22.02. 0:00 4 1 7 140° SO
Ortszeit Untergrenze Bedeckung Gattung
total tief tief mittel hoch
Fr, 22.02. 1:00 960 m 8/8 8/8 - - -
Do, 21.02. 19:00 1800 m 7/8 7/8 - - -
Do, 21.02. 13:00 810 m 7/8 7/8 - - -
Do, 21.02. 7:00 4200 m 6/8 4/8 - - -
Do, 21.02. 1:00 2400 m 3/8 3/8 - - -
Mi, 20.02. 19:00 3000 m 8/8 8/8 - - -
Mi, 20.02. 13:00 3600 m 8/8 8/8 - - -
Mi, 20.02. 7:00 3300 m 8/8 8/8 - - -
Ortszeit Bedeckungsgrad in Achtel und Wolkenuntergrenze
Fr, 22.02. 3:00 7(630m) 8(840m)
Fr, 22.02. 2:50 7(630m) 8(840m)
Fr, 22.02. 2:40 7(630m)
Fr, 22.02. 2:30 8(690m)
Fr, 22.02. 2:20 8(690m)
Fr, 22.02. 2:10 8(720m)
Fr, 22.02. 2:00 8(750m)
Fr, 22.02. 1:30 8(840m) 8(930m)
Fr, 22.02. 1:00 8(960m)
Fr, 22.02. 0:30 3(1020m) 8(1290m)
Fr, 22.02. 0:00 7(1350m) 8(2400m) 8(2400m)
Ortszeit Luftdruck NN (hPa) Tendenz (hPa in 3 Std.)
Fr, 22.02. 1:00 1029 + 0,2
Do, 21.02. 19:00 1029 + 0,8
Do, 21.02. 13:00 1028 - 0,5
Do, 21.02. 7:00 1029 + 0,3
Do, 21.02. 1:00 1028 + 0,4
Mi, 20.02. 19:00 1026 + 0,4
Mi, 20.02. 13:00 1026 - 0,1
Mi, 20.02. 7:00 1025 + 0,6
Ortszeit Luftdruck NN (hPa) Tendenz (hPa in 3 Std.)
Fr, 22.02. 3:00 1029 + 0,2
Fr, 22.02. 2:50 1029 keine Meldung
Fr, 22.02. 2:40 1029 keine Meldung
Fr, 22.02. 2:30 1029 + 0,1
Fr, 22.02. 2:20 1029 keine Meldung
Fr, 22.02. 2:10 1029 keine Meldung
Fr, 22.02. 2:00 1029 - 0,1
Fr, 22.02. 1:30 1029 - 0,1
Fr, 22.02. 1:00 1029 + 0,2
Fr, 22.02. 0:30 1030 + 0,6
Fr, 22.02. 0:00 1029 + 0,5
Ortszeit Schneehöhe (cm)
Fr, 22.02. 1:00 0
Do, 21.02. 19:00 0
Do, 21.02. 13:00 0
Do, 21.02. 7:00 0
Do, 21.02. 1:00 0
Mi, 20.02. 19:00 0
Mi, 20.02. 13:00 0
Mi, 20.02. 7:00 0
Ortszeit Schneehöhe (cm)
Fr, 22.02. 3:00 0
Fr, 22.02. 2:50 0
Fr, 22.02. 2:40 0
Fr, 22.02. 2:30 0
Fr, 22.02. 2:20 0
Fr, 22.02. 2:10 0
Fr, 22.02. 2:00 0
Fr, 22.02. 1:30 0
Fr, 22.02. 1:00 0
Fr, 22.02. 0:30 0
Fr, 22.02. 0:00 0
Link zu dieser Seite / Seite empfehlen

Das Wetter in ...